AirNav   Pilot Hours Calculator
 
 858 users online  

VG12 Simpsonville Airport
Rhoadesville, Virginia, USA

GOING TO RHOADESVILLE?


FAA INFORMATION EFFECTIVE 07 NOVEMBER 2019

Location

FAA Identifier: VG12
Lat/Long: 38-20-00.4700N 077-51-58.9800W
38-20.007833N 077-51.983000W
38.3334639,-77.8663833
(estimated)
Elevation: 400 ft. / 122 m (estimated)
Variation: 09W (1995)
From city: 5 miles NE of RHOADESVILLE, VA
Time zone: UTC -5 (UTC -4 during Daylight Saving Time)
Zip code: 22542

Airport Operations

Airport use: Private use. Permission required prior to landing
Activation date: 02/1998
Control tower: no
ARTCC: WASHINGTON CENTER
FSS: LEESBURG FLIGHT SERVICE STATION
Attendance: UNATNDD
Wind indicator: yes
Segmented circle: no

Airport Communications

WX AWOS-3 at OMH (10 nm SW): 118.075 (540-672-0505)
WX AWOS-3 at CJR (12 nm N): 119.325 (540-727-0523)
WX AWOS-3 at HWY (17 nm NE): 120.350 (540-788-4078)
WX AWOS-3 at GVE (18 nm SW): 120.225 (540-832-2095)
WX AWOS-3 at RMN (20 nm E): 126.325 (540-657-8283)

Nearby radio navigation aids

VOR radial/distance  VOR name  Freq  Var
CSNr186/18.5CASANOVA VORTAC116.3006W
GVEr041/23.5GORDONSVILLE VORTAC115.6006W
BRVr279/24.2BROOKE VORTAC114.5009W
LDNr159/35.1LINDEN VORTAC114.3006W

 
NDB name  Hdg/Dist  Freq  Var  ID
NAILR176/7.535110WMSQ -- ... --.-
SHANNON292/20.023710WEZF . --.. ..-.
CAVERNS137/35.924509WLUA .-.. ..- .-

Airport Services

Runway Information

Runway 1/19

Dimensions: 1900 x 50 ft. / 579 x 15 m
Surface: turf, in good condition
RUNWAY 1  RUNWAY 19
Traffic pattern: leftleft
Displaced threshold: 500 ft.no
Obstructions: 80 ft. trees, 200 ft. from runwaynone

Airport Ownership and Management from official FAA records

Ownership: Privately-owned
Owner: RANDY L SIMPSON
29200 FRIENDSHIP LA
RHOADESVILLE, VA 22542
Phone 540-850-0030
Manager: RANDY L SIMPSON
29200 FRIENDSHIP LA
RHOADESVILLE, VA 22542
Phone 540-850-0030

Airport Operational Statistics

Aircraft based on the field: 1
Single engine airplanes: 1
    

Additional Remarks

FOR CD CTC POTOMAC APCH AT 866-709-4993.

Instrument Procedures

There are no published instrument procedures at VG12.

Some nearby airports with instrument procedures:

KOMH - Orange County Airport (10 nm SW)
KCJR - Culpeper Regional Airport (12 nm N)
KHWY - Warrenton-Fauquier Airport (17 nm NE)
KGVE - Gordonsville Municipal Airport (18 nm SW)
KRMN - Stafford Regional Airport (20 nm E)
 
Loc | Ops | Rwys | IFR | FBO | Links
Com | Nav | Svcs | Stats | Notes
Area around VG12 (Simpsonville Airport)
 
Road maps at: MapQuest Bing Google
 
Aerial photo
No photo
 
Sectional chart

 
Airport distance calculator
Flying to Simpsonville Airport? Find the distance to fly.

From to VG12

Sunrise and sunset
Times for 18-Nov-2019
 Local
(UTC-5)
 Zulu
(UTC)
Morning civil twilight06:2911:29
Sunrise06:5711:57
Sunset16:5621:56
Evening civil twilight17:2522:25

Current date and time
Zulu (UTC)  18-Nov-2019 13:28:35
Local (UTC-5)  18-Nov-2019 08:28:35
 
METAR
KOMH 
10nm SW 
181315Z AUTO 01003KT 10SM BKN011 OVC023 03/01 A2990 RMK AO2
KCJR 
17nm NW 
181315Z AUTO 02003KT 10SM OVC013 05/02 A2991 RMK AO2 T00450016
KHWY 
17nm NE 
181315Z AUTO 03003KT 10SM OVC012 05/01 A2990 RMK AO2 T00450009
KGVE 
18nm SW 
181315Z AUTO 04003KT 10SM OVC021 04/03 A2989 RMK AO1 T00410030
KLKU 
20nm S 
181315Z AUTO 02005KT 10SM OVC009 03/01 A2993 RMK AO2 T00340013
KRMN 
20nm E 
181315Z AUTO 33005KT 1 3/4SM BR OVC008 04/04 A2994 RMK AO2 T00400040
TAF
KNYG 
29nm E 
1809/1909 33006KT 9999 OVC010 QNH2989INS BECMG 1810/1812 VRBT06 9999 BKN010 OVC020 QNH2979INS TEMPO 1900/1906 6000 -SHRA BR FM190600 VRB06KT 9999 OVC010 QNH2981INS T03/1912Z T07/1920Z
KCHO 
30nm SW 
181121Z 1812/1912 00000KT P6SM -DZ OVC007 FM181500 00000KT P6SM BKN015 FM181700 00000KT P6SM BKN035 FM182200 VRB03KT P6SM BKN030 FM190000 00000KT P6SM -SHRA OVC020 FM190600 VRB03KT 4SM BR SCT050
NOTAMs
Click for the latest NOTAMs
NOTAMs are issued by the DoD/FAA and will open in a separate window not controlled by AirNav.

 

 
 

Would you like to see your business listed on this page?

 If your business provides an interesting product or service to pilots, flight crews, aircraft, or users of the Simpsonville Airport, you should consider listing it here.  To start the listing process, click on the button below
 
Add a business
 

Other Pages about Simpsonville Airport

Update a link
 
Copyright © AirNav, LLC. All rights reserved. Privacy Policy  Contact